Time;durP1;ratioP1;P1;durP2;ratioP2;P2;SDS_P1;SDS_P2;PMS_P1;PMS_P2;Temp;Humidity;BMP_temperature;BMP_pressure;BME280_temperature;BME280_humidity;BME280_pressure;Samples;Min_cycle;Max_cycle;Signal;HPM_P1;HPM_P2
2022/09/17 00:01:31;;;;;;;2.85;2.75;;;;;;;-141.48;100.00;69781.59;5203098;28;20036;-65
2022/09/17 00:04:03;;;;;;;12.85;4.95;;;;;;;-141.48;100.00;69781.59;5202602;28;20111;-65
2022/09/17 00:06:35;;;;;;;6.55;4.10;;;;;;;-141.48;100.00;69781.59;5205781;28;20421;-66
2022/09/17 00:09:07;;;;;;;5.90;3.90;;;;;;;-141.48;100.00;69781.59;5206582;28;20508;-66
2022/09/17 00:11:41;;;;;;;10.20;3.85;;;;;;;-141.48;100.00;69781.59;5205628;28;20061;-66
2022/09/17 00:14:14;;;;;;;16.13;4.85;;;;;;;-141.48;100.00;69781.59;5206256;28;20400;-66
2022/09/17 00:16:48;;;;;;;13.30;5.57;;;;;;;-141.48;100.00;69781.59;5205937;28;20113;-66
2022/09/17 00:19:21;;;;;;;4.85;4.38;;;;;;;-141.48;100.00;69781.59;5206820;28;20036;-67
2022/09/17 00:21:52;;;;;;;6.35;4.32;;;;;;;-141.48;100.00;69781.59;5205251;28;20032;-66
2022/09/17 00:24:22;;;;;;;3.53;3.22;;;;;;;-141.48;100.00;69781.59;5206062;28;20469;-65
2022/09/17 00:26:52;;;;;;;10.15;4.40;;;;;;;-141.48;100.00;69781.59;5206514;28;20181;-65
2022/09/17 00:29:23;;;;;;;6.10;3.63;;;;;;;-141.48;100.00;69781.59;5206034;28;20396;-62
2022/09/17 00:31:53;;;;;;;8.88;3.55;;;;;;;-141.48;100.00;69781.59;5206426;28;20021;-63
2022/09/17 00:34:24;;;;;;;6.70;4.32;;;;;;;-141.48;100.00;69781.59;5205748;28;20025;-64
2022/09/17 00:36:54;;;;;;;7.93;3.72;;;;;;;-141.48;100.00;69781.59;5206607;28;20017;-64
2022/09/17 00:39:25;;;;;;;9.68;3.97;;;;;;;-141.48;100.00;69781.59;5206476;28;20416;-65
2022/09/17 00:41:55;;;;;;;9.05;4.97;;;;;;;-141.48;100.00;69781.59;5206160;28;20021;-65
2022/09/17 00:44:47;;;;;;;3.60;3.30;;;;;;;-141.48;100.00;69781.59;5205906;28;20027;-66
2022/09/17 00:47:23;;;;;;;9.13;4.28;;;;;;;-141.48;100.00;69781.59;5206138;28;20536;-70
2022/09/17 00:50:16;;;;;;;9.63;4.15;;;;;;;-141.48;100.00;69781.59;5206090;28;20026;-66
2022/09/17 00:53:17;;;;;;;9.13;3.40;;;;;;;-141.48;100.00;69781.59;5204911;28;20025;-67
2022/09/17 00:55:56;;;;;;;15.23;4.50;;;;;;;-141.48;100.00;69781.59;5200472;28;20097;-66
2022/09/17 00:58:28;;;;;;;4.75;3.90;;;;;;;-141.48;100.00;69781.59;5205928;28;20397;-67
2022/09/17 01:00:58;;;;;;;3.85;3.65;;;;;;;-141.48;100.00;69781.59;5205988;28;20040;-67
2022/09/17 01:03:29;;;;;;;18.33;5.47;;;;;;;-141.48;100.00;69781.59;5205256;28;20545;-68
2022/09/17 01:06:23;;;;;;;3.50;3.13;;;;;;;-141.48;100.00;69781.59;5205688;28;20116;-66
2022/09/17 01:09:15;;;;;;;3.28;2.97;;;;;;;-141.48;100.00;69781.59;5205542;28;20036;-67
2022/09/17 01:12:04;;;;;;;8.30;4.82;;;;;;;-141.48;100.00;69781.59;5205914;28;20033;-68
2022/09/17 01:14:56;;;;;;;5.90;3.33;;;;;;;-141.48;100.00;69781.59;5205512;28;20160;-67
2022/09/17 01:17:41;;;;;;;8.43;3.45;;;;;;;-141.48;100.00;69781.59;5204871;28;20029;-67
2022/09/17 01:20:48;;;;;;;10.13;3.75;;;;;;;-141.48;100.00;69781.59;5205696;28;20500;-67
2022/09/17 01:23:34;;;;;;;9.38;4.15;;;;;;;-141.48;100.00;69781.59;5203663;28;20439;-67
2022/09/17 01:26:21;;;;;;;3.88;3.58;;;;;;;-141.48;100.00;69781.59;5204820;28;20056;-68
2022/09/17 01:29:00;;;;;;;4.68;3.85;;;;;;;-141.48;100.00;69781.59;5204664;28;20036;-67
2022/09/17 01:31:39;;;;;;;3.80;3.58;;;;;;;-141.48;100.00;69781.59;5204729;28;20065;-68
2022/09/17 01:34:25;;;;;;;7.82;4.35;;;;;;;-141.48;100.00;69781.59;5202708;28;20108;-66
2022/09/17 01:37:19;;;;;;;6.93;4.20;;;;;;;-141.48;100.00;69781.59;5204615;28;20052;-67
2022/09/17 01:40:03;;;;;;;13.20;4.80;;;;;;;-141.48;100.00;69781.59;5205166;28;20560;-65
2022/09/17 01:42:56;;;;;;;15.85;4.32;;;;;;;-141.48;100.00;69781.59;5203291;28;20021;-62
2022/09/17 01:45:36;;;;;;;5.10;4.00;;;;;;;-141.48;100.00;69781.59;5203560;28;20470;-63
2022/09/17 01:48:10;;;;;;;4.32;3.45;;;;;;;-141.48;100.00;69781.59;5204073;28;20032;-63
2022/09/17 01:50:51;;;;;;;7.03;2.92;;;;;;;-141.48;100.00;69781.59;5203797;28;20030;-64
2022/09/17 01:53:27;;;;;;;7.53;3.78;;;;;;;-141.48;100.00;69781.59;5203609;28;20104;-64
2022/09/17 01:56:00;;;;;;;4.25;2.72;;;;;;;-141.48;100.00;69781.59;5204252;28;20109;-64
2022/09/17 01:58:39;;;;;;;13.65;3.55;;;;;;;-141.48;100.00;69781.59;5202776;28;20374;-65
2022/09/17 02:01:11;;;;;;;5.03;2.22;;;;;;;-141.48;100.00;69781.59;5203712;28;20350;-65
2022/09/17 02:04:15;;;;;;;8.73;3.67;;;;;;;-141.48;100.00;69781.59;5203105;28;20072;-65
2022/09/17 02:06:52;;;;;;;5.60;2.33;;;;;;;-141.48;100.00;69781.59;5203918;28;20031;-65
2022/09/17 02:09:29;;;;;;;3.30;2.47;;;;;;;-141.48;100.00;69781.59;5203292;28;20037;-66
2022/09/17 02:12:06;;;;;;;5.10;2.70;;;;;;;-141.48;100.00;69781.59;5203406;28;20028;-67
2022/09/17 02:14:46;;;;;;;7.72;4.07;;;;;;;-141.48;100.00;69781.59;5203141;28;20072;-66
2022/09/17 02:17:38;;;;;;;11.43;4.27;;;;;;;-141.48;100.00;69781.59;5203686;28;20029;-67
2022/09/17 02:20:09;;;;;;;15.68;3.95;;;;;;;-141.48;100.00;69781.59;5203480;28;20033;-66
2022/09/17 02:22:51;;;;;;;6.93;3.80;;;;;;;-141.48;100.00;69781.59;5204336;28;20639;-67
2022/09/17 02:25:32;;;;;;;8.02;4.43;;;;;;;-141.48;100.00;69781.59;5201518;28;20044;-67
2022/09/17 02:28:18;;;;;;;15.15;4.53;;;;;;;-141.48;100.00;69781.59;5203062;28;20108;-67
2022/09/17 02:30:49;;;;;;;8.95;3.25;;;;;;;-141.48;100.00;69781.59;5203479;28;20389;-68
2022/09/17 02:33:21;;;;;;;3.40;2.67;;;;;;;-141.48;100.00;69781.59;5203121;28;20028;-67
2022/09/17 02:35:52;;;;;;;4.05;3.50;;;;;;;-141.48;100.00;69781.59;5203357;28;20029;-68
2022/09/17 02:38:27;;;;;;;3.08;2.85;;;;;;;-141.48;100.00;69781.59;5203210;28;20025;-67
2022/09/17 02:41:16;;;;;;;4.15;3.17;;;;;;;-141.48;100.00;69781.59;5202004;28;20029;-68
2022/09/17 02:43:50;;;;;;;3.30;2.77;;;;;;;-141.48;100.00;69781.59;5202853;28;20045;-68
2022/09/17 02:46:31;;;;;;;3.90;3.58;;;;;;;-141.48;100.00;69781.59;5203226;28;20021;-68
2022/09/17 02:49:10;;;;;;;11.07;4.35;;;;;;;-141.48;100.00;69781.59;5201737;28;20170;-66
2022/09/17 02:52:06;;;;;;;8.53;4.10;;;;;;;-141.48;100.00;69781.59;5203295;28;20026;-67
2022/09/17 02:55:03;;;;;;;3.88;2.05;;;;;;;-141.48;100.00;69781.59;5202649;28;20112;-67
2022/09/17 02:57:42;;;;;;;4.80;3.53;;;;;;;-141.48;100.00;69781.59;5201402;28;20112;-65
2022/09/17 03:00:16;;;;;;;8.75;3.92;;;;;;;-141.48;100.00;69781.59;5203955;28;20498;-67
2022/09/17 03:02:54;;;;;;;7.70;3.40;;;;;;;-141.48;100.00;69781.59;5203004;28;20037;-67
2022/09/17 03:05:26;;;;;;;3.63;2.53;;;;;;;-141.48;100.00;69781.59;5200873;28;20033;-67
2022/09/17 03:07:59;;;;;;;7.03;4.13;;;;;;;-141.48;100.00;69781.59;5201468;28;20025;-68
2022/09/17 03:10:32;;;;;;;5.82;3.88;;;;;;;-141.48;100.00;69781.59;5201826;28;20053;-68
2022/09/17 03:13:03;;;;;;;3.90;2.78;;;;;;;-141.48;100.00;69781.59;5202835;28;20028;-66
2022/09/17 03:15:33;;;;;;;3.63;3.38;;;;;;;-141.48;100.00;69781.59;5202228;28;20029;-67
2022/09/17 03:18:04;;;;;;;11.88;3.88;;;;;;;-141.48;100.00;69781.59;5201291;28;20025;-68
2022/09/17 03:20:34;;;;;;;3.33;3.10;;;;;;;-141.48;100.00;69781.59;5201302;28;20033;-68
2022/09/17 03:23:05;;;;;;;2.15;2.05;;;;;;;-141.48;100.00;69781.59;5202703;28;20501;-67
2022/09/17 03:25:35;;;;;;;12.15;4.55;;;;;;;-141.48;100.00;69781.59;5200911;28;20026;-67
2022/09/17 03:28:06;;;;;;;20.35;5.45;;;;;;;-141.48;100.00;69781.59;5202478;28;20100;-67
2022/09/17 03:30:36;;;;;;;7.82;3.90;;;;;;;-141.48;100.00;69781.59;5202297;28;20024;-67
2022/09/17 03:33:07;;;;;;;3.33;3.03;;;;;;;-141.48;100.00;69781.59;5202807;28;20017;-68
2022/09/17 03:35:41;;;;;;;4.55;3.92;;;;;;;-141.48;100.00;69781.59;5201946;28;20021;-67
2022/09/17 03:38:12;;;;;;;8.80;3.30;;;;;;;-141.48;100.00;69781.59;5202361;28;20036;-67
2022/09/17 03:40:43;;;;;;;4.47;2.97;;;;;;;-141.48;100.00;69781.59;5203300;28;20025;-67
2022/09/17 03:43:13;;;;;;;8.20;4.20;;;;;;;-141.48;100.00;69781.59;5206391;28;20028;-66
2022/09/17 03:45:44;;;;;;;10.88;4.95;;;;;;;-141.48;100.00;69781.59;5204905;28;20646;-68
2022/09/17 03:48:14;;;;;;;11.40;2.40;;;;;;;-141.48;100.00;69781.59;5206582;28;20507;-67
2022/09/17 03:50:44;;;;;;;5.13;3.13;;;;;;;-141.48;100.00;69781.59;5206400;28;20029;-68
2022/09/17 03:53:15;;;;;;;5.63;3.72;;;;;;;-141.48;100.00;69781.59;5206170;28;20028;-66
2022/09/17 03:55:46;;;;;;;3.63;3.00;;;;;;;-141.48;100.00;69781.59;5205583;28;20083;-66
2022/09/17 03:58:16;;;;;;;6.57;4.32;;;;;;;-141.48;100.00;69781.59;5206108;28;20091;-65
2022/09/17 04:00:51;;;;;;;3.83;3.47;;;;;;;-141.48;100.00;69781.59;5205810;28;20022;-66
2022/09/17 04:03:27;;;;;;;12.52;4.30;;;;;;;-141.48;100.00;69781.59;5204326;28;20071;-64
2022/09/17 04:05:57;;;;;;;10.43;4.78;;;;;;;-141.48;100.00;69781.59;5206007;28;20026;-65
2022/09/17 04:08:28;;;;;;;9.43;3.90;;;;;;;-141.48;100.00;69781.59;5218856;22;20097;-66
2022/09/17 04:10:58;;;;;;;8.45;2.83;;;;;;;-141.48;100.00;69781.59;5203112;28;20060;-66
2022/09/17 04:13:28;;;;;;;7.47;3.40;;;;;;;-141.48;100.00;69781.59;5202986;28;20033;-65
2022/09/17 04:15:59;;;;;;;10.30;4.18;;;;;;;-141.48;100.00;69781.59;5203897;28;20392;-66
2022/09/17 04:18:29;;;;;;;6.13;3.70;;;;;;;-141.48;100.00;69781.59;5199069;28;20162;-66
2022/09/17 04:21:00;;;;;;;6.05;3.45;;;;;;;-141.48;100.00;69781.59;5165352;28;20049;-66
2022/09/17 04:23:30;;;;;;;5.20;4.43;;;;;;;-141.48;100.00;69781.59;5182875;28;20025;-67
2022/09/17 04:26:01;;;;;;;6.00;4.10;;;;;;;-141.48;100.00;69781.59;5183461;28;20343;-66
2022/09/17 04:28:31;;;;;;;8.13;3.90;;;;;;;-141.48;100.00;69781.59;5183406;28;20369;-66
2022/09/17 04:31:02;;;;;;;8.70;3.72;;;;;;;-141.48;100.00;69781.59;5183040;28;20087;-66
2022/09/17 04:33:32;;;;;;;7.45;4.72;;;;;;;-141.48;100.00;69781.59;5183165;28;20102;-66
2022/09/17 04:36:03;;;;;;;9.73;4.28;;;;;;;-141.48;100.00;69781.59;5183135;28;20544;-67
2022/09/17 04:38:33;;;;;;;8.77;4.80;;;;;;;-141.48;100.00;69781.59;5183014;28;20506;-68
2022/09/17 04:41:06;;;;;;;2.97;2.72;;;;;;;-141.48;100.00;69781.59;5182894;28;20477;-68
2022/09/17 04:43:36;;;;;;;14.30;3.30;;;;;;;-141.48;100.00;69781.59;5182310;28;20037;-67
2022/09/17 04:46:06;;;;;;;14.32;4.22;;;;;;;-141.48;100.00;69781.59;5182960;28;20413;-68
2022/09/17 04:48:37;;;;;;;13.57;5.07;;;;;;;-141.48;100.00;69781.59;5182550;28;20634;-67
2022/09/17 04:51:07;;;;;;;5.75;3.75;;;;;;;-141.48;100.00;69781.59;5182062;28;20026;-68
2022/09/17 04:53:38;;;;;;;3.05;2.83;;;;;;;-141.48;100.00;69781.59;5164015;28;20172;-67
2022/09/17 04:56:08;;;;;;;9.45;4.85;;;;;;;-141.48;100.00;69781.59;5164932;28;20106;-68
2022/09/17 04:58:38;;;;;;;9.95;5.78;;;;;;;-141.48;100.00;69781.59;5182438;28;20452;-69
2022/09/17 05:01:09;;;;;;;10.55;3.78;;;;;;;-141.48;100.00;69781.59;5182261;28;20022;-68
2022/09/17 05:03:39;;;;;;;8.50;4.07;;;;;;;-141.48;100.00;69781.59;5182246;28;20470;-67
2022/09/17 05:06:10;;;;;;;7.22;2.95;;;;;;;-141.48;100.00;69781.59;5182451;28;20050;-67
2022/09/17 05:08:40;;;;;;;5.60;3.38;;;;;;;-141.48;100.00;69781.59;5164530;28;20025;-66
2022/09/17 05:11:11;;;;;;;4.93;4.28;;;;;;;-141.48;100.00;69781.59;5164811;28;20108;-66
2022/09/17 05:13:41;;;;;;;4.88;3.20;;;;;;;-141.48;100.00;69781.59;5164225;28;20343;-67
2022/09/17 05:16:11;;;;;;;5.13;3.97;;;;;;;-141.48;100.00;69781.59;5182762;28;20145;-67
2022/09/17 05:18:42;;;;;;;10.80;3.58;;;;;;;-141.48;100.00;69781.59;5164552;28;20113;-66
2022/09/17 05:21:13;;;;;;;5.57;2.55;;;;;;;-141.48;100.00;69781.59;5182166;28;20045;-66
2022/09/17 05:23:43;;;;;;;10.60;3.67;;;;;;;-141.48;100.00;69781.59;5181629;28;20076;-65
2022/09/17 05:26:14;;;;;;;7.15;3.83;;;;;;;-141.48;100.00;69781.59;5182180;28;20030;-66
2022/09/17 05:28:45;;;;;;;3.53;3.20;;;;;;;-141.48;100.00;69781.59;5164455;28;20022;-66
2022/09/17 05:31:15;;;;;;;7.43;3.55;;;;;;;-141.48;100.00;69781.59;5164817;28;20399;-67
2022/09/17 05:33:45;;;;;;;9.68;4.80;;;;;;;-141.48;100.00;69781.59;5164552;28;20025;-66
2022/09/17 05:36:16;;;;;;;3.40;2.33;;;;;;;-141.48;100.00;69781.59;5164754;28;20026;-66
2022/09/17 05:38:46;;;;;;;5.50;3.83;;;;;;;-141.48;100.00;69781.59;5182097;28;20021;-66
2022/09/17 05:41:17;;;;;;;4.55;3.55;;;;;;;-141.48;100.00;69781.59;5181735;28;20390;-67
2022/09/17 05:43:48;;;;;;;9.07;4.43;;;;;;;-141.48;100.00;69781.59;5181843;28;20024;-67
2022/09/17 05:46:18;;;;;;;2.70;2.50;;;;;;;-141.48;100.00;69781.59;5165341;28;20026;-67
2022/09/17 05:48:48;;;;;;;12.50;4.05;;;;;;;-141.48;100.00;69781.59;5182168;28;20033;-67
2022/09/17 05:51:19;;;;;;;6.63;3.95;;;;;;;-141.48;100.00;69781.59;5181775;28;20095;-67
2022/09/17 05:53:49;;;;;;;9.50;4.25;;;;;;;-141.48;100.00;69781.59;5181165;28;20049;-67
2022/09/17 05:56:20;;;;;;;9.80;3.90;;;;;;;-141.48;100.00;69781.59;5181926;28;20026;-68
2022/09/17 05:58:55;;;;;;;5.85;4.85;;;;;;;-141.48;100.00;69781.59;5181223;28;20100;-68
2022/09/17 06:01:26;;;;;;;4.88;4.45;;;;;;;-141.48;100.00;69781.59;5164455;28;20417;-67
2022/09/17 06:03:57;;;;;;;10.90;5.40;;;;;;;-141.48;100.00;69781.59;5180985;28;20029;-67
2022/09/17 06:06:30;;;;;;;11.32;5.65;;;;;;;-141.48;100.00;69781.59;5164289;28;20026;-67
2022/09/17 06:09:01;;;;;;;5.68;2.97;;;;;;;-141.48;100.00;69781.59;5181528;28;20029;-67
2022/09/17 06:11:31;;;;;;;5.68;2.72;;;;;;;-141.48;100.00;69781.59;5182014;28;20018;-67
2022/09/17 06:14:02;;;;;;;3.10;2.75;;;;;;;-141.48;100.00;69781.59;5180673;28;20018;-67
2022/09/17 06:16:32;;;;;;;3.88;2.88;;;;;;;-141.48;100.00;69781.59;5181360;28;20363;-67
2022/09/17 06:19:03;;;;;;;4.55;3.15;;;;;;;-141.48;100.00;69781.59;5181348;28;20026;-67
2022/09/17 06:21:33;;;;;;;9.15;2.72;;;;;;;-141.48;100.00;69781.59;5181147;28;20040;-67
2022/09/17 06:24:04;;;;;;;3.47;2.60;;;;;;;-141.48;100.00;69781.59;5163493;28;20034;-67
2022/09/17 06:26:34;;;;;;;6.30;3.70;;;;;;;-141.48;100.00;69781.59;5180987;28;20025;-66
2022/09/17 06:29:04;;;;;;;7.50;4.53;;;;;;;-141.48;100.00;69781.59;5181281;28;20099;-66
2022/09/17 06:31:35;;;;;;;7.05;3.38;;;;;;;-141.48;100.00;69781.59;5180795;28;20465;-66
2022/09/17 06:34:05;;;;;;;4.63;2.90;;;;;;;-141.48;100.00;69781.59;5180083;28;20442;-67
2022/09/17 06:36:36;;;;;;;2.72;2.53;;;;;;;-141.48;100.00;69781.59;5181098;28;20061;-69
2022/09/17 06:39:06;;;;;;;3.80;3.30;;;;;;;-141.48;100.00;69781.59;5180633;28;20049;-68
2022/09/17 06:41:37;;;;;;;6.07;3.83;;;;;;;-141.48;100.00;69781.59;5180507;28;20127;-67
2022/09/17 06:44:09;;;;;;;3.78;3.55;;;;;;;-141.48;100.00;69781.59;5180015;28;20132;-68
2022/09/17 06:46:40;;;;;;;6.45;3.25;;;;;;;-141.48;100.00;69781.59;5178888;28;20101;-67
2022/09/17 06:49:10;;;;;;;8.95;3.63;;;;;;;-141.48;100.00;69781.59;5163223;28;20147;-67
2022/09/17 06:51:40;;;;;;;3.05;2.80;;;;;;;-141.48;100.00;69781.59;5162696;28;20418;-66
2022/09/17 06:54:11;;;;;;;4.60;2.95;;;;;;;-141.48;100.00;69781.59;5179727;28;20029;-65
2022/09/17 06:56:41;;;;;;;6.82;3.35;;;;;;;-141.48;100.00;69781.59;5162314;28;20030;-66
2022/09/17 06:59:12;;;;;;;2.70;2.55;;;;;;;-141.48;100.00;69781.59;5177297;28;20022;-66
2022/09/17 07:01:43;;;;;;;5.80;3.38;;;;;;;-141.48;100.00;69781.59;5161007;28;20137;-66
2022/09/17 07:04:13;;;;;;;7.18;3.63;;;;;;;-141.48;100.00;69781.59;5179654;28;20084;-66
2022/09/17 07:06:44;;;;;;;5.00;3.60;;;;;;;-141.48;100.00;69781.59;5180334;28;20068;-66
2022/09/17 07:09:14;;;;;;;3.92;3.63;;;;;;;-141.48;100.00;69781.59;5179683;28;20036;-67
2022/09/17 07:11:44;;;;;;;6.20;4.40;;;;;;;-141.48;100.00;69781.59;5179845;28;20766;-67
2022/09/17 07:14:15;;;;;;;4.55;3.83;;;;;;;-141.48;100.00;69781.59;5178915;28;20022;-67
2022/09/17 07:16:45;;;;;;;8.93;3.78;;;;;;;-141.48;100.00;69781.59;5179873;28;20029;-67
2022/09/17 07:19:16;;;;;;;4.97;4.30;;;;;;;-141.48;100.00;69781.59;5179929;28;20439;-66
2022/09/17 07:21:48;;;;;;;3.75;3.47;;;;;;;-141.48;100.00;69781.59;5162251;28;20462;-66
2022/09/17 07:24:18;;;;;;;9.90;3.45;;;;;;;-141.48;100.00;69781.59;5162960;28;20056;-65
2022/09/17 07:26:49;;;;;;;4.30;2.88;;;;;;;-141.48;100.00;69781.59;5180139;28;20061;-64
2022/09/17 07:29:20;;;;;;;3.80;3.50;;;;;;;-141.48;100.00;69781.59;5162686;28;20038;-65
2022/09/17 07:31:52;;;;;;;5.40;3.05;;;;;;;-141.48;100.00;69781.59;5162239;28;20088;-64
2022/09/17 07:34:22;;;;;;;3.80;1.98;;;;;;;-141.48;100.00;69781.59;5179420;28;20482;-65
2022/09/17 07:36:52;;;;;;;3.33;2.95;;;;;;;-141.48;100.00;69781.59;5180238;28;20086;-65
2022/09/17 07:39:23;;;;;;;3.20;3.00;;;;;;;-141.48;100.00;69781.59;5180031;28;20029;-65
2022/09/17 07:41:53;;;;;;;6.30;2.97;;;;;;;-141.48;100.00;69781.59;5180050;28;20029;-65
2022/09/17 07:44:23;;;;;;;4.30;3.55;;;;;;;-141.48;100.00;69781.59;5179564;28;20094;-65
2022/09/17 07:46:54;;;;;;;11.23;2.78;;;;;;;-141.48;100.00;69781.59;5180081;28;20030;-65
2022/09/17 07:49:24;;;;;;;2.78;1.73;;;;;;;-141.48;100.00;69781.59;5162408;28;20037;-65
2022/09/17 07:51:55;;;;;;;6.10;4.88;;;;;;;-141.48;100.00;69781.59;5162421;28;20079;-65
2022/09/17 07:54:26;;;;;;;9.75;2.30;;;;;;;-141.48;100.00;69781.59;5161963;28;20030;-64
2022/09/17 07:56:56;;;;;;;3.17;2.97;;;;;;;-141.48;100.00;69781.59;5180088;28;20026;-64
2022/09/17 07:59:26;;;;;;;5.35;3.78;;;;;;;-141.48;100.00;69781.59;5179691;28;20438;-64
2022/09/17 08:01:57;;;;;;;6.10;4.55;;;;;;;-141.48;100.00;69781.59;5180118;28;20465;-64
2022/09/17 08:04:27;;;;;;;6.72;3.63;;;;;;;-141.48;100.00;69781.59;5179348;28;20455;-64
2022/09/17 08:06:57;;;;;;;2.80;2.47;;;;;;;-141.48;100.00;69781.59;5180246;28;20033;-65
2022/09/17 08:09:28;;;;;;;3.53;3.15;;;;;;;-141.48;100.00;69781.59;5179743;28;20172;-64
2022/09/17 08:11:58;;;;;;;2.90;2.25;;;;;;;-141.48;100.00;69781.59;5179789;28;20033;-64
2022/09/17 08:14:28;;;;;;;9.30;2.88;;;;;;;-141.48;100.00;69781.59;5177751;28;20017;-65
2022/09/17 08:16:59;;;;;;;2.65;2.05;;;;;;;-141.48;100.00;69781.59;5178909;28;20025;-64
2022/09/17 08:19:31;;;;;;;3.60;3.15;;;;;;;-141.48;100.00;69781.59;5179639;28;20546;-64
2022/09/17 08:22:02;;;;;;;5.13;4.18;;;;;;;-141.48;100.00;69781.59;5178447;28;20498;-66
2022/09/17 08:24:32;;;;;;;2.50;1.80;;;;;;;-141.48;100.00;69781.59;5175082;28;20098;-65
2022/09/17 08:27:02;;;;;;;1.90;1.85;;;;;;;-141.48;100.00;69781.59;5179477;28;20152;-65
2022/09/17 08:29:33;;;;;;;5.00;2.35;;;;;;;-141.48;100.00;69781.59;5183297;28;20032;-64
2022/09/17 08:32:03;;;;;;;2.95;2.78;;;;;;;-141.48;100.00;69781.59;5183200;28;20050;-65
2022/09/17 08:34:35;;;;;;;3.13;2.92;;;;;;;-141.48;100.00;69781.59;5182514;28;20029;-64
2022/09/17 08:37:05;;;;;;;3.10;1.83;;;;;;;-141.48;100.00;69781.59;5183295;28;20022;-65
2022/09/17 08:39:36;;;;;;;9.95;2.92;;;;;;;-141.48;100.00;69781.59;5182991;28;20112;-64
2022/09/17 08:42:17;;;;;;;3.65;3.10;;;;;;;-141.48;100.00;69781.59;5183151;28;20096;-64
2022/09/17 08:44:47;;;;;;;2.80;2.22;;;;;;;-141.48;100.00;69781.59;5182426;28;20033;-64
2022/09/17 08:47:21;;;;;;;15.27;3.90;;;;;;;-141.48;100.00;69781.59;5180960;28;20767;-64
2022/09/17 08:49:55;;;;;;;9.45;3.10;;;;;;;-141.48;100.00;69781.59;5182856;28;20034;-64
2022/09/17 08:52:54;;;;;;;2.38;1.80;;;;;;;-141.48;100.00;69781.59;5183072;28;20025;-64
2022/09/17 08:55:32;;;;;;;2.47;2.28;;;;;;;-141.48;100.00;69781.59;5159843;28;20068;-64
2022/09/17 08:58:37;;;;;;;2.47;2.38;;;;;;;-141.48;100.00;69781.59;5182090;28;20116;-66
2022/09/17 09:01:57;;;;;;;3.35;1.95;;;;;;;-141.48;100.00;69781.59;5165160;28;20026;-66
2022/09/17 09:04:55;;;;;;;2.53;1.73;;;;;;;-141.48;100.00;69781.59;5176656;28;20375;-64
2022/09/17 09:07:36;;;;;;;3.92;1.95;;;;;;;-141.48;100.00;69781.59;5182622;28;20398;-64
2022/09/17 09:10:48;;;;;;;1.90;1.83;;;;;;;-141.48;100.00;69781.59;5164494;28;20098;-64
2022/09/17 09:13:22;;;;;;;2.60;2.50;;;;;;;-141.48;100.00;69781.59;5147783;28;20486;-65
2022/09/17 09:15:58;;;;;;;2.30;2.20;;;;;;;-141.48;100.00;69781.59;5182599;28;20514;-65
2022/09/17 09:18:30;;;;;;;4.15;2.15;;;;;;;-141.48;100.00;69781.59;5182439;28;20030;-64
2022/09/17 09:21:35;;;;;;;6.60;3.28;;;;;;;-141.48;100.00;69781.59;5164828;28;20025;-65
2022/09/17 09:24:21;;;;;;;2.42;2.33;;;;;;;-141.48;100.00;69781.59;5181618;28;20036;-64
2022/09/17 09:27:16;;;;;;;2.47;2.38;;;;;;;-141.48;100.00;69781.59;5182184;28;20125;-64
2022/09/17 09:30:02;;;;;;;2.35;1.80;;;;;;;-141.48;100.00;69781.59;5164560;28;20066;-64
2022/09/17 09:33:02;;;;;;;3.60;1.98;;;;;;;-141.48;100.00;69781.59;5164654;28;20064;-65
2022/09/17 09:35:35;;;;;;;3.25;1.80;;;;;;;-141.48;100.00;69781.59;5164179;28;20034;-64
2022/09/17 09:38:13;;;;;;;6.60;2.63;;;;;;;-141.48;100.00;69781.59;5181359;28;20036;-64
2022/09/17 09:40:54;;;;;;;7.30;2.65;;;;;;;-141.48;100.00;69781.59;5181701;28;20963;-64
2022/09/17 09:43:41;;;;;;;6.40;2.33;;;;;;;-141.48;100.00;69781.59;5179279;28;20427;-65
2022/09/17 09:46:42;;;;;;;2.88;2.00;;;;;;;-141.48;100.00;69781.59;5181676;28;20037;-65
2022/09/17 09:49:42;;;;;;;4.40;2.35;;;;;;;-141.48;100.00;69781.59;5181868;28;20523;-65
2022/09/17 09:52:33;;;;;;;2.08;1.98;;;;;;;-141.48;100.00;69781.59;5182083;28;20426;-65
2022/09/17 09:55:39;;;;;;;1.70;1.60;;;;;;;-141.48;100.00;69781.59;5180972;28;20046;-65
2022/09/17 09:58:21;;;;;;;2.22;2.03;;;;;;;-141.48;100.00;69781.59;5181702;28;20029;-65
2022/09/17 10:00:51;;;;;;;2.55;2.38;;;;;;;-141.48;100.00;69781.59;5163863;28;20105;-65
2022/09/17 10:03:31;;;;;;;1.60;1.50;;;;;;;-141.48;100.00;69781.59;5181422;28;20114;-65
2022/09/17 10:06:06;;;;;;;3.17;2.33;;;;;;;-141.48;100.00;69781.59;5182094;28;20025;-65
2022/09/17 10:08:39;;;;;;;1.63;1.60;;;;;;;-141.48;100.00;69781.59;5206241;22;20025;-79
2022/09/17 10:11:10;;;;;;;3.38;1.52;;;;;;;-141.48;100.00;69781.59;5183462;28;20180;-80
2022/09/17 10:13:40;;;;;;;1.50;1.50;;;;;;;-141.48;100.00;69781.59;5188007;28;20140;-80
2022/09/17 10:16:23;;;;;;;2.63;2.35;;;;;;;-141.48;100.00;69781.59;5189472;28;20032;-81
2022/09/17 10:19:02;;;;;;;2.10;1.90;;;;;;;-141.48;100.00;69781.59;5189917;28;20491;-82
2022/09/17 10:21:38;;;;;;;3.28;2.47;;;;;;;-141.48;100.00;69781.59;5189960;28;20022;-81
2022/09/17 10:24:24;;;;;;;5.97;2.50;;;;;;;-141.48;100.00;69781.59;5172009;28;20030;-80
2022/09/17 10:27:03;;;;;;;2.00;1.77;;;;;;;-141.48;100.00;69781.59;5190222;28;20032;-81
2022/09/17 10:29:34;;;;;;;1.48;1.40;;;;;;;-141.48;100.00;69781.59;5190610;28;20030;-79
2022/09/17 10:32:05;;;;;;;1.92;1.83;;;;;;;-141.48;100.00;69781.59;5190984;28;20036;-80
2022/09/17 10:34:42;;;;;;;2.65;1.80;;;;;;;-141.48;100.00;69781.59;5189623;28;20017;-79
2022/09/17 10:37:42;;;;;;;6.95;1.90;;;;;;;-141.48;100.00;69781.59;5188081;28;20488;-78
2022/09/17 10:40:19;;;;;;;2.28;2.08;;;;;;;-141.48;100.00;69781.59;5185431;28;20017;-78
2022/09/17 10:43:10;;;;;;;1.85;1.80;;;;;;;-141.48;100.00;69781.59;5185119;28;20033;-80
2022/09/17 10:45:44;;;;;;;2.88;2.58;;;;;;;-141.48;100.00;69781.59;5185123;28;20025;-78
2022/09/17 10:48:19;;;;;;;1.90;1.90;;;;;;;-141.48;100.00;69781.59;5168284;28;20030;-78
2022/09/17 10:50:52;;;;;;;4.22;2.50;;;;;;;-141.48;100.00;69781.59;5184872;28;20476;-80
2022/09/17 10:53:25;;;;;;;1.48;1.48;;;;;;;-141.48;100.00;69781.59;5185676;28;20480;-79
2022/09/17 10:56:05;;;;;;;4.32;1.95;;;;;;;-141.48;100.00;69781.59;5186343;28;20399;-79
2022/09/17 10:59:12;;;;;;;1.92;1.90;;;;;;;-141.48;100.00;69781.59;5169140;28;20037;-79
2022/09/17 11:02:14;;;;;;;2.58;2.25;;;;;;;-141.48;100.00;69781.59;5168752;28;20034;-79
2022/09/17 11:05:06;;;;;;;9.80;2.08;;;;;;;-141.48;100.00;69781.59;5171995;28;20408;-80
2022/09/17 11:07:58;;;;;;;10.38;2.30;;;;;;;-141.48;100.00;69781.59;5167915;28;20037;-80
2022/09/17 11:10:47;;;;;;;1.52;1.50;;;;;;;-141.48;100.00;69781.59;5168306;28;20062;-80
2022/09/17 11:13:31;;;;;;;2.65;2.45;;;;;;;-141.48;100.00;69781.59;5167399;28;20034;-81
2022/09/17 11:16:10;;;;;;;2.63;2.53;;;;;;;-141.48;100.00;69781.59;5167337;28;20077;-80
2022/09/17 11:18:50;;;;;;;1.70;1.60;;;;;;;-141.48;100.00;69781.59;5166836;28;20471;-80
2022/09/17 11:21:59;;;;;;;1.60;1.50;;;;;;;-141.48;100.00;69781.59;5166997;28;20455;-79
2022/09/17 11:24:47;;;;;;;2.47;2.38;;;;;;;-141.48;100.00;69781.59;5171952;28;20108;-80
2022/09/17 11:27:36;;;;;;;1.27;1.17;;;;;;;-141.48;100.00;69781.59;5167924;28;20117;-80
2022/09/17 11:30:34;;;;;;;2.17;2.08;;;;;;;-141.48;100.00;69781.59;5166921;28;20033;-79
2022/09/17 11:33:39;;;;;;;4.53;3.15;;;;;;;-141.48;100.00;69781.59;5175171;28;20460;-78
2022/09/17 11:36:38;;;;;;;3.88;1.88;;;;;;;-141.48;100.00;69781.59;5168163;28;20234;-78
2022/09/17 11:39:24;;;;;;;2.45;2.28;;;;;;;-141.48;100.00;69781.59;5155747;28;20038;-78
2022/09/17 11:41:59;;;;;;;2.60;2.40;;;;;;;-141.48;100.00;69781.59;5185204;28;20026;-79
2022/09/17 11:44:34;;;;;;;2.28;2.17;;;;;;;-141.48;100.00;69781.59;5185911;28;20026;-79
2022/09/17 11:47:16;;;;;;;2.30;2.10;;;;;;;-141.48;100.00;69781.59;5185932;28;20041;-79
2022/09/17 11:50:04;;;;;;;4.30;2.90;;;;;;;-141.48;100.00;69781.59;5167649;28;20026;-78
2022/09/17 11:52:44;;;;;;;3.10;2.90;;;;;;;-141.48;100.00;69781.59;5184901;28;20076;-79